Latest Weather Observations for Kapooka (Defence)
Issued at 10:53 am EST Friday 8 May 2026 (issued every 10 minutes, with the page automatically refreshed every 10 minutes)
| Station Details | ID: 074272 | Name: KAPOOKA (DEFENCE) | Lat: -35.13 | Lon: 147.25 | Height: 187.0 m |
| Date/Time EST |
Temp °C |
App Temp °C |
Dew Point °C |
Rel Hum % |
Delta-T °C |
Wind | Press QNH hPa |
Press MSL hPa |
Rain since 9am mm |
|||||
|---|---|---|---|---|---|---|---|---|---|---|---|---|---|---|
| Dir | Spd km/h |
Gust km/h |
Spd kts |
Gust kts |
||||||||||
| 08/10:30am | 12.1 | 8.1 | 8.9 | 81 | 1.6 | WSW | 20 | 35 | 11 | 19 | - | - | 0.0 | |
| 08/10:00am | 11.4 | 7.8 | 8.3 | 81 | 1.5 | WSW | 17 | 26 | 9 | 14 | - | - | 0.0 | |
| 08/09:30am | 11.0 | 7.7 | 8.1 | 82 | 1.4 | WSW | 15 | 28 | 8 | 15 | - | - | 0.0 | |
| 08/09:00am | 10.4 | 7.4 | 7.6 | 83 | 1.4 | W | 13 | 24 | 7 | 13 | - | - | 0.0 | |
| 08/08:30am | 10.0 | 7.0 | 7.6 | 85 | 1.2 | W | 13 | 22 | 7 | 12 | - | - | 0.0 | |
| 08/08:00am | 9.6 | 6.4 | 6.9 | 83 | 1.3 | W | 13 | 28 | 7 | 15 | - | - | 0.0 | |
| 08/07:30am | 9.4 | 6.9 | 6.5 | 82 | 1.4 | W | 9 | 19 | 5 | 10 | - | - | 0.0 | |
| 08/07:00am | 10.0 | 6.7 | 6.3 | 78 | 1.7 | W | 13 | 20 | 7 | 11 | - | - | 0.0 | |
| 08/06:30am | 9.9 | 7.4 | 6.4 | 79 | 1.6 | WSW | 9 | 15 | 5 | 8 | - | - | 0.0 | |
| 08/06:00am | 9.5 | 6.9 | 6.0 | 79 | 1.6 | WSW | 9 | 15 | 5 | 8 | - | - | 0.0 | |
| 08/05:30am | 9.2 | 6.5 | 5.8 | 79 | 1.6 | WSW | 9 | 17 | 5 | 9 | - | - | 0.0 | |
| 08/05:00am | 9.1 | 6.9 | 5.5 | 78 | 1.6 | W | 6 | 13 | 3 | 7 | - | - | 0.0 | |
| 08/04:30am | 9.1 | 5.9 | 5.3 | 77 | 1.7 | WSW | 11 | 17 | 6 | 9 | - | - | 0.0 | |
| 08/04:00am | 8.8 | 6.4 | 5.2 | 78 | 1.6 | WSW | 7 | 13 | 4 | 7 | - | - | 0.0 | |
| 08/03:30am | 8.6 | 6.4 | 5.2 | 79 | 1.5 | WSW | 6 | 9 | 3 | 5 | - | - | 0.0 | |
| 08/03:00am | 8.2 | 6.3 | 4.8 | 79 | 1.5 | W | 4 | 6 | 2 | 3 | - | - | 0.0 | |
| 08/02:30am | 8.6 | 5.7 | 4.4 | 75 | 1.9 | WSW | 9 | 15 | 5 | 8 | - | - | 0.0 | |
| 08/02:00am | 8.3 | 6.3 | 4.5 | 77 | 1.7 | W | 4 | 7 | 2 | 4 | - | - | 0.0 | |
| 08/01:30am | 8.3 | 5.9 | 4.3 | 76 | 1.8 | W | 6 | 9 | 3 | 5 | - | - | 0.0 | |
| 08/01:00am | 8.6 | 5.7 | 4.4 | 75 | 1.9 | WSW | 9 | 13 | 5 | 7 | - | - | 0.0 | |
| 08/12:30am | 8.3 | 5.7 | 4.3 | 76 | 1.8 | WSW | 7 | 11 | 4 | 6 | - | - | 0.0 | |
| 08/12:00am | 7.9 | 5.5 | 4.1 | 77 | 1.7 | W | 6 | 9 | 3 | 5 | - | - | 0.0 | |
| Date/Time EST |
Temp °C |
App Temp °C |
Dew Point °C |
Rel Hum % |
Delta-T °C |
Wind | Press QNH hPa |
Press MSL hPa |
Rain since 9am mm |
|||||
|---|---|---|---|---|---|---|---|---|---|---|---|---|---|---|
| Dir | Spd km/h |
Gust km/h |
Spd kts |
Gust kts |
||||||||||
| 07/11:30pm | 8.4 | 5.8 | 4.4 | 76 | 1.8 | WSW | 7 | 13 | 4 | 7 | - | - | 0.0 | |
| 07/11:00pm | 7.8 | 5.3 | 3.8 | 76 | 1.7 | SW | 6 | 9 | 3 | 5 | - | - | 0.0 | |
| 07/10:30pm | 7.3 | 4.6 | 3.5 | 77 | 1.6 | SW | 7 | 9 | 4 | 5 | - | - | 0.0 | |
| 07/10:00pm | 7.2 | 4.5 | 3.6 | 78 | 1.5 | SW | 7 | 9 | 4 | 5 | - | - | 0.0 | |
| 07/09:30pm | 7.8 | 4.0 | 3.7 | 75 | 1.8 | WSW | 13 | 20 | 7 | 11 | - | - | 0.0 | |
| 07/09:00pm | 8.4 | 3.8 | 3.5 | 71 | 2.1 | WSW | 17 | 24 | 9 | 13 | - | - | 0.0 | |
| 07/08:30pm | 9.0 | 5.5 | 3.4 | 68 | 2.4 | W | 11 | 19 | 6 | 10 | - | - | 0.0 | |
| 07/08:00pm | 8.8 | 6.2 | 3.4 | 69 | 2.3 | W | 6 | 9 | 3 | 5 | - | - | 0.0 | |
| 07/07:30pm | 9.1 | 7.0 | 3.7 | 69 | 2.4 | SW | 4 | 7 | 2 | 4 | - | - | 0.0 | |
| 07/07:00pm | 9.2 | 6.7 | 3.6 | 68 | 2.5 | WSW | 6 | 9 | 3 | 5 | - | - | 0.0 | |
| 07/06:30pm | 9.2 | 6.7 | 3.6 | 68 | 2.5 | SW | 6 | 11 | 3 | 6 | - | - | 0.0 | |
| 07/06:00pm | 8.8 | 6.6 | 3.2 | 68 | 2.4 | WSW | 4 | 7 | 2 | 4 | - | - | 0.0 | |
| 07/05:30pm | 9.1 | 5.9 | 2.9 | 65 | 2.7 | SW | 9 | 17 | 5 | 9 | - | - | 0.0 | |
| 07/05:00pm | 9.8 | 4.6 | 2.2 | 59 | 3.2 | SW | 19 | 28 | 10 | 15 | - | - | 0.0 | |
| 07/04:30pm | 10.9 | 5.0 | 2.0 | 54 | 3.8 | SW | 22 | 37 | 12 | 20 | - | - | 0.0 | |
| 07/04:00pm | 11.3 | 5.7 | 1.5 | 51 | 4.2 | SW | 20 | 28 | 11 | 15 | - | - | 0.0 | |
| 07/03:30pm | 11.1 | 4.8 | 1.6 | 52 | 4.0 | SW | 24 | 39 | 13 | 21 | - | - | 0.0 | |
| 07/03:00pm | 11.3 | 5.1 | 2.3 | 54 | 3.9 | WSW | 24 | 35 | 13 | 19 | - | - | 0.0 | |
| 07/02:30pm | 10.6 | 4.9 | 2.7 | 58 | 3.4 | WSW | 22 | 39 | 12 | 21 | - | - | 0.0 | |
| 07/02:00pm | 11.3 | 5.9 | 2.6 | 55 | 3.8 | WSW | 20 | 35 | 11 | 19 | - | - | 0.0 | |
| 07/01:30pm | 10.1 | 3.9 | 2.2 | 58 | 3.4 | WSW | 24 | 37 | 13 | 20 | - | - | 0.0 | |
| 07/01:00pm | 10.0 | 3.8 | 2.4 | 59 | 3.3 | WSW | 24 | 35 | 13 | 19 | - | - | 0.0 | |
| 07/12:30pm | 10.2 | 3.3 | 2.8 | 60 | 3.2 | WSW | 28 | 41 | 15 | 22 | - | - | 0.0 | |
| 07/12:00pm | 10.6 | 5.0 | 3.2 | 60 | 3.3 | SW | 22 | 32 | 12 | 17 | - | - | 0.0 | |
| 07/11:30am | 10.3 | 4.0 | 3.6 | 63 | 3.0 | WSW | 26 | 41 | 14 | 22 | - | - | 0.0 | |
| 07/11:00am | 9.9 | 3.2 | 3.4 | 64 | 2.9 | SW | 28 | 43 | 15 | 23 | - | - | 0.0 | |
| 07/10:30am | 9.6 | 2.8 | 2.9 | 63 | 2.9 | SW | 28 | 39 | 15 | 21 | - | - | 0.0 | |
| 07/10:00am | 9.0 | 2.6 | 3.4 | 68 | 2.4 | WSW | 26 | 35 | 14 | 19 | - | - | 0.0 | |
| 07/09:30am | 8.2 | 2.2 | 3.1 | 70 | 2.2 | SW | 24 | 35 | 13 | 19 | - | - | 0.0 | |
| 07/09:00am | 7.6 | 2.3 | 2.9 | 72 | 2.0 | WSW | 20 | 35 | 11 | 19 | - | - | 0.4 | |
| 07/08:30am | 7.3 | 2.2 | 3.2 | 75 | 1.7 | SW | 19 | 30 | 10 | 16 | - | - | 0.4 | |
| 07/08:00am | 6.7 | 2.0 | 3.0 | 77 | 1.6 | WSW | 17 | 26 | 9 | 14 | - | - | 0.4 | |
| 07/07:30am | 6.1 | 2.1 | 2.9 | 80 | 1.3 | WSW | 13 | 20 | 7 | 11 | - | - | 0.4 | |
| 07/07:00am | 6.0 | 2.0 | 2.8 | 80 | 1.3 | WSW | 13 | 24 | 7 | 13 | - | - | 0.4 | |
| 07/06:30am | 6.5 | 2.2 | 3.1 | 79 | 1.4 | WSW | 15 | 24 | 8 | 13 | - | - | 0.4 | |
| 07/06:00am | 6.9 | 3.0 | 3.3 | 78 | 1.5 | WSW | 13 | 20 | 7 | 11 | - | - | 0.4 | |
| 07/05:30am | 8.0 | 2.3 | 2.9 | 70 | 2.2 | SW | 22 | 37 | 12 | 20 | - | - | 0.4 | |
| 07/05:00am | 8.9 | 4.3 | 5.6 | 80 | 1.5 | SW | 19 | 30 | 10 | 16 | - | - | 0.4 | |
| 07/04:30am | 9.0 | 4.2 | 5.4 | 78 | 1.6 | SW | 20 | 30 | 11 | 16 | - | - | 0.4 | |
| 07/04:00am | 8.9 | 4.2 | 6.0 | 82 | 1.3 | SW | 20 | 30 | 11 | 16 | - | - | 0.4 | |
| 07/03:30am | 9.6 | 3.9 | 6.7 | 82 | 1.4 | SW | 26 | 39 | 14 | 21 | - | - | 0.2 | |
| 07/03:18am | 10.2 | 4.4 | 7.8 | 85 | 1.2 | WSW | 28 | 52 | 15 | 28 | - | - | 0.2 | |
| 07/03:00am | 11.4 | 7.9 | 8.8 | 84 | 1.3 | W | 17 | 43 | 9 | 23 | - | - | 0.2 | |
| 07/02:30am | 11.1 | 9.9 | 9.5 | 90 | 0.8 | NW | 6 | 9 | 3 | 5 | - | - | 0.2 | |
| 07/02:00am | 11.2 | 9.4 | 9.5 | 89 | 0.9 | NW | 9 | 17 | 5 | 9 | - | - | 0.2 | |
| 07/01:30am | 11.7 | 9.8 | 8.9 | 83 | 1.4 | WNW | 9 | 19 | 5 | 10 | - | - | 0.2 | |
| 07/01:00am | 12.0 | 11.0 | 8.7 | 80 | 1.7 | WNW | 4 | 7 | 2 | 4 | - | - | 0.2 | |
| 07/12:30am | 11.6 | 10.6 | 9.0 | 84 | 1.3 | WSW | 4 | 9 | 2 | 5 | - | - | 0.2 | |
| 07/12:00am | 11.7 | 10.2 | 9.3 | 85 | 1.2 | NNE | 7 | 9 | 4 | 5 | - | - | 0.2 | |
| Date/Time EST |
Temp °C |
App Temp °C |
Dew Point °C |
Rel Hum % |
Delta-T °C |
Wind | Press QNH hPa |
Press MSL hPa |
Rain since 9am mm |
|||||
|---|---|---|---|---|---|---|---|---|---|---|---|---|---|---|
| Dir | Spd km/h |
Gust km/h |
Spd kts |
Gust kts |
||||||||||
| 06/11:30pm | 11.4 | 10.1 | 9.1 | 86 | 1.2 | NNE | 6 | 9 | 3 | 5 | - | - | 0.2 | |
| 06/11:00pm | 11.6 | 10.6 | 9.0 | 84 | 1.3 | N | 4 | 4 | 2 | 2 | - | - | 0.2 | |
| 06/10:30pm | 11.8 | 10.9 | 9.2 | 84 | 1.3 | N | 4 | 6 | 2 | 3 | - | - | 0.2 | |
| 06/10:00pm | 12.1 | 11.4 | 8.6 | 79 | 1.8 | NNE | 2 | 4 | 1 | 2 | - | - | 0.2 | |
| 06/09:30pm | 11.9 | 11.5 | 8.4 | 79 | 1.7 | CALM | 0 | 0 | 0 | 0 | - | - | 0.2 | |
| 06/09:00pm | 11.5 | 11.3 | 9.1 | 85 | 1.2 | CALM | 0 | 4 | 0 | 2 | - | - | 0.2 | |
| 06/08:30pm | 11.6 | 11.4 | 9.0 | 84 | 1.3 | CALM | 0 | 0 | 0 | 0 | - | - | 0.2 | |
| 06/08:00pm | 11.6 | 11.3 | 8.6 | 82 | 1.5 | CALM | 0 | 0 | 0 | 0 | - | - | 0.2 | |
| 06/07:30pm | 12.2 | 11.8 | 8.3 | 77 | 1.9 | CALM | 0 | 0 | 0 | 0 | - | - | 0.2 | |
| 06/07:00pm | 13.1 | 12.0 | 6.9 | 66 | 3.0 | WSW | 2 | 6 | 1 | 3 | - | - | 0.2 | |
| 06/06:30pm | 13.7 | 11.5 | 6.1 | 60 | 3.7 | W | 7 | 13 | 4 | 7 | - | - | 0.2 | |
| 06/06:00pm | 13.2 | 11.7 | 8.3 | 72 | 2.5 | SW | 6 | 9 | 3 | 5 | - | - | 0.0 | |
| 06/05:30pm | 13.6 | 11.9 | 7.4 | 66 | 3.1 | SW | 6 | 9 | 3 | 5 | - | - | 0.0 | |
| 06/05:00pm | 13.9 | 11.5 | 7.0 | 63 | 3.4 | SW | 9 | 15 | 5 | 8 | - | - | 0.0 | |
| 06/04:30pm | 14.3 | 11.8 | 8.0 | 66 | 3.2 | SW | 11 | 17 | 6 | 9 | - | - | 0.0 | |
| 06/04:00pm | 14.4 | 11.9 | 8.1 | 66 | 3.2 | WSW | 11 | 17 | 6 | 9 | - | - | 0.0 | |
| 06/03:30pm | 15.0 | 12.2 | 8.7 | 66 | 3.2 | SW | 13 | 19 | 7 | 10 | - | - | 0.0 | |
| 06/03:00pm | 15.0 | 12.9 | 9.6 | 70 | 2.8 | SW | 11 | 17 | 6 | 9 | - | - | 0.0 | |
| 06/02:30pm | 14.9 | 14.0 | 9.3 | 69 | 2.9 | W | 4 | 6 | 2 | 3 | - | - | 0.0 | |
| 06/02:00pm | 15.0 | 13.5 | 9.1 | 68 | 3.0 | W | 7 | 11 | 4 | 6 | - | - | 0.0 | |
| 06/01:30pm | 15.5 | 14.7 | 10.9 | 74 | 2.5 | WNW | 6 | 9 | 3 | 5 | - | - | 0.0 | |
| 06/01:00pm | 13.6 | 13.8 | 10.6 | 82 | 1.6 | CALM | 0 | 6 | 0 | 3 | - | - | 0.0 | |
| 06/12:30pm | 13.3 | 13.2 | 10.7 | 84 | 1.4 | N | 2 | 6 | 1 | 3 | - | - | 0.0 | |
| 06/12:00pm | 11.8 | 11.8 | 11.3 | 97 | 0.3 | NNE | 2 | 4 | 1 | 2 | - | - | 0.0 | |
| 06/11:30am | 10.4 | 10.6 | 10.4 | 100 | 0.0 | CALM | 0 | 0 | 0 | 0 | - | - | 0.0 | |
| 06/11:00am | 9.5 | 9.4 | 9.5 | 100 | 0.0 | CALM | 0 | 0 | 0 | 0 | - | - | 0.0 | |
| 06/10:30am | 9.1 | 8.2 | 9.1 | 100 | 0.0 | NNW | 4 | 7 | 2 | 4 | - | - | 0.0 | |
| 06/10:00am | 9.3 | 8.4 | 9.3 | 100 | 0.0 | NNW | 4 | 6 | 2 | 3 | - | - | 0.0 | |
| 06/09:30am | 8.7 | 8.4 | 8.7 | 100 | 0.0 | CALM | 0 | 0 | 0 | 0 | - | - | 0.0 | |
| 06/09:00am | 7.9 | 7.4 | 7.9 | 100 | 0.0 | CALM | 0 | 0 | 0 | 0 | - | - | 0.2 | |
| 06/08:30am | 6.5 | 5.7 | 6.5 | 100 | 0.0 | CALM | 0 | 0 | 0 | 0 | - | - | 0.2 | |
| 06/08:00am | 5.7 | 4.7 | 5.7 | 100 | 0.0 | CALM | 0 | 0 | 0 | 0 | - | - | 0.2 | |
| 06/07:30am | 5.4 | 4.4 | 5.4 | 100 | 0.0 | CALM | 0 | 0 | 0 | 0 | - | - | 0.2 | |
| 06/07:00am | 5.3 | 4.2 | 5.3 | 100 | 0.0 | CALM | 0 | 0 | 0 | 0 | - | - | 0.2 | |
| 06/06:30am | 5.1 | 4.0 | 5.1 | 100 | 0.0 | CALM | 0 | 0 | 0 | 0 | - | - | 0.2 | |
| 06/06:00am | 4.7 | 3.5 | 4.7 | 100 | 0.0 | CALM | 0 | 0 | 0 | 0 | - | - | 0.2 | |
| 06/05:30am | 4.6 | 3.4 | 4.6 | 100 | 0.0 | CALM | 0 | 0 | 0 | 0 | - | - | 0.2 | |
| 06/05:00am | 4.8 | 3.6 | 4.8 | 100 | 0.0 | CALM | 0 | 0 | 0 | 0 | - | - | 0.2 | |
| 06/04:30am | 4.6 | 3.4 | 4.6 | 100 | 0.0 | CALM | 0 | 0 | 0 | 0 | - | - | 0.0 | |
| 06/04:00am | 5.3 | 3.1 | 5.3 | 100 | 0.0 | SSE | 6 | 6 | 3 | 3 | - | - | 0.0 | |
| 06/03:30am | 5.1 | 3.2 | 5.1 | 100 | 0.0 | S | 4 | 4 | 2 | 2 | - | - | 0.0 | |
| 06/03:00am | 4.7 | 2.4 | 4.7 | 100 | 0.0 | S | 6 | 6 | 3 | 3 | - | - | 0.0 | |
| 06/02:30am | 4.5 | 3.3 | 4.5 | 100 | 0.0 | CALM | 0 | 0 | 0 | 0 | - | - | 0.0 | |
| 06/02:00am | 4.7 | 3.5 | 4.7 | 100 | 0.0 | CALM | 0 | 0 | 0 | 0 | - | - | 0.0 | |
| 06/01:30am | 5.3 | 4.2 | 5.3 | 100 | 0.0 | CALM | 0 | 0 | 0 | 0 | - | - | 0.0 | |
| 06/01:00am | 5.7 | 4.7 | 5.7 | 100 | 0.0 | CALM | 0 | 0 | 0 | 0 | - | - | 0.0 | |
| 06/12:30am | 5.8 | 4.8 | 5.8 | 100 | 0.0 | CALM | 0 | 0 | 0 | 0 | - | - | 0.0 | |
| 06/12:00am | 5.5 | 4.5 | 5.5 | 100 | 0.0 | CALM | 0 | 0 | 0 | 0 | - | - | 0.0 | |
| Date/Time EST |
Temp °C |
App Temp °C |
Dew Point °C |
Rel Hum % |
Delta-T °C |
Wind | Press QNH hPa |
Press MSL hPa |
Rain since 9am mm |
||||
|---|---|---|---|---|---|---|---|---|---|---|---|---|---|
| Dir | Spd km/h |
Gust km/h |
Spd kts |
Gust kts |
|||||||||
| 05/11:30pm | 6.6 | 4.7 | 6.6 | 100 | 0.0 | S | 6 | 7 | 3 | 4 | - | - | 0.0 |
| 05/11:00pm | 6.5 | 5.7 | 6.4 | 99 | 0.0 | CALM | 0 | 0 | 0 | 0 | - | - | 0.0 |
| 05/10:30pm | 7.0 | 6.3 | 6.9 | 99 | 0.0 | CALM | 0 | 0 | 0 | 0 | - | - | 0.0 |
| 05/10:00pm | 7.2 | 6.5 | 6.9 | 98 | 0.1 | CALM | 0 | 0 | 0 | 0 | - | - | 0.0 |
| 05/09:30pm | 7.3 | 6.6 | 6.9 | 97 | 0.2 | CALM | 0 | 0 | 0 | 0 | - | - | 0.0 |
| 05/09:00pm | 8.0 | 7.0 | 7.4 | 96 | 0.3 | SE | 2 | 4 | 1 | 2 | - | - | 0.0 |
| 05/08:30pm | 8.4 | 7.8 | 7.5 | 94 | 0.4 | CALM | 0 | 0 | 0 | 0 | - | - | 0.0 |
| 05/08:00pm | 8.7 | 8.1 | 7.3 | 91 | 0.7 | CALM | 0 | 0 | 0 | 0 | - | - | 0.0 |
| 05/07:30pm | 9.4 | 8.9 | 7.7 | 89 | 0.8 | CALM | 0 | 0 | 0 | 0 | - | - | 0.0 |
| 05/07:00pm | 9.9 | 9.5 | 8.2 | 89 | 0.8 | CALM | 0 | 0 | 0 | 0 | - | - | 0.0 |
| 05/06:30pm | 9.6 | 9.1 | 8.0 | 90 | 0.8 | CALM | 0 | 0 | 0 | 0 | - | - | 0.0 |
| 05/06:00pm | 11.3 | 10.9 | 8.3 | 82 | 1.5 | CALM | 0 | 0 | 0 | 0 | - | - | 0.0 |
| 05/05:30pm | 12.3 | 11.9 | 8.4 | 77 | 1.9 | CALM | 0 | 0 | 0 | 0 | - | - | 0.0 |
| 05/05:00pm | 14.0 | 12.4 | 8.8 | 71 | 2.7 | WSW | 7 | 9 | 4 | 5 | - | - | 0.0 |
| 05/04:30pm | 15.1 | 13.1 | 8.6 | 65 | 3.3 | WSW | 9 | 15 | 5 | 8 | - | - | 0.0 |
| 05/04:00pm | 15.7 | 13.6 | 8.4 | 62 | 3.7 | SW | 9 | 15 | 5 | 8 | - | - | 0.0 |
| 05/03:30pm | 16.2 | 14.1 | 8.4 | 60 | 4.0 | WSW | 9 | 15 | 5 | 8 | - | - | 0.0 |
| 05/03:00pm | 16.6 | 15.3 | 9.1 | 61 | 3.9 | W | 6 | 13 | 3 | 7 | - | - | 0.0 |
| 05/02:30pm | 15.5 | 13.9 | 8.0 | 61 | 3.8 | W | 6 | 9 | 3 | 5 | - | - | 0.0 |
| 05/02:00pm | 15.6 | 14.4 | 9.7 | 68 | 3.1 | WNW | 6 | 11 | 3 | 6 | - | - | 0.0 |
| 05/01:30pm | 14.9 | 13.6 | 9.3 | 69 | 2.9 | WNW | 6 | 9 | 3 | 5 | - | - | 0.0 |
| 05/01:00pm | 14.3 | 12.9 | 8.9 | 70 | 2.8 | W | 6 | 9 | 3 | 5 | - | - | 0.0 |
| 05/12:30pm | 14.0 | 12.6 | 9.0 | 72 | 2.6 | SW | 6 | 11 | 3 | 6 | - | - | 0.0 |
| 05/12:00pm | 14.1 | 13.8 | 10.1 | 77 | 2.1 | WNW | 2 | 6 | 1 | 3 | - | - | 0.0 |
| 05/11:30am | 13.5 | 12.6 | 9.2 | 75 | 2.2 | NW | 4 | 7 | 2 | 4 | - | - | 0.0 |
| 05/11:00am | 13.3 | 12.1 | 9.5 | 78 | 2.0 | WSW | 6 | 9 | 3 | 5 | - | - | 0.0 |
Other formats
Comma delimited format used in spreadsheet applications
http://www.bom.gov.au/fwo/IDN60801/IDN60801.94944.axf
JavaScript Object Notation format (JSON) in row-major order
http://www.bom.gov.au/fwo/IDN60801/IDN60801.94944.json
Data quality
Most of these data are generated automatically and are frequently updated. Quality checks on data are not normally performed. It is possible for incorrect values to appear. Refer to information at About Latest Weather Observations and please check the disclaimer before using these data.
